Time;durP1;ratioP1;P1;durP2;ratioP2;P2;SDS_P1;SDS_P2;PMS_P1;PMS_P2;Temp;Humidity;BMP_temperature;BMP_pressure;BME280_temperature;BME280_humidity;BME280_pressure;Samples;Min_cycle;Max_cycle;Signal;HPM_P1;HPM_P2
2021/03/18 00:00:53;;;;;;;6.25;4.90;;;1.00;1.00;;;;;;4901847;29;20249;-78
2021/03/18 00:03:23;;;;;;;8.30;6.20;;;1.00;1.00;;;;;;4888712;29;20248;-78
2021/03/18 00:05:49;;;;;;;7.07;5.90;;;1.00;1.00;;;;;;4899508;28;20229;-76
2021/03/18 00:08:16;;;;;;;6.35;5.65;;;1.00;1.00;;;;;;4903360;29;20305;-77
2021/03/18 00:10:44;;;;;;;9.73;6.00;;;1.00;1.00;;;;;;4889527;28;21022;-77
2021/03/18 00:13:11;;;;;;;5.53;4.63;;;1.00;1.00;;;;;;4904172;29;20240;-77
2021/03/18 00:15:39;;;;;;;6.90;5.07;;;0.90;1.00;;;;;;4895249;28;20229;-77
2021/03/18 00:18:05;;;;;;;6.43;5.82;;;0.90;1.00;;;;;;4902637;29;20229;-78
2021/03/18 00:20:32;;;;;;;10.50;5.90;;;0.90;1.00;;;;;;4889925;28;20254;-77
2021/03/18 00:22:58;;;;;;;6.53;5.80;;;0.80;1.00;;;;;;4908428;28;20297;-78
2021/03/18 00:25:25;;;;;;;11.32;5.97;;;0.80;1.00;;;;;;4893360;28;20221;-77
2021/03/18 00:27:51;;;;;;;5.85;5.15;;;0.80;1.00;;;;;;4902260;28;20247;-77
2021/03/18 00:30:20;;;;;;;7.45;6.32;;;0.80;1.00;;;;;;4899989;29;20824;-76
2021/03/18 00:32:47;;;;;;;6.97;6.13;;;0.80;1.00;;;;;;4909771;29;20229;-75
2021/03/18 00:35:16;;;;;;;7.85;5.70;;;0.80;1.00;;;;;;4901929;28;20230;-76
2021/03/18 00:37:44;;;;;;;6.18;5.15;;;0.80;1.00;;;;;;4917639;29;20272;-77
2021/03/18 00:40:13;;;;;;;6.63;5.35;;;0.70;1.00;;;;;;4905895;28;20232;-78
2021/03/18 00:42:53;;;;;;;9.02;5.85;;;0.80;1.00;;;;;;4915780;29;20261;-77
2021/03/18 00:45:20;;;;;;;6.60;5.72;;;0.70;1.00;;;;;;4909886;28;21089;-77
2021/03/18 00:47:46;;;;;;;7.25;5.88;;;0.70;1.00;;;;;;4914755;29;20329;-77
2021/03/18 00:50:16;;;;;;;7.85;5.80;;;0.70;1.00;;;;;;4900609;29;20989;-78
2021/03/18 00:52:42;;;;;;;5.78;4.80;;;0.60;1.00;;;;;;4909667;28;20226;-77
2021/03/18 00:55:11;;;;;;;7.07;5.75;;;0.70;1.00;;;;;;4905429;29;20230;-77
2021/03/18 00:57:38;;;;;;;7.25;6.03;;;0.70;1.00;;;;;;4907194;28;20230;-77
2021/03/18 01:00:10;;;;;;;8.93;6.82;;;0.60;1.00;;;;;;4909119;29;20236;-78
2021/03/18 01:02:36;;;;;;;8.45;6.20;;;0.60;1.00;;;;;;4904530;29;20585;-78
2021/03/18 01:05:07;;;;;;;8.38;6.55;;;0.60;1.00;;;;;;4888642;29;20264;-76
2021/03/18 01:07:33;;;;;;;8.23;6.38;;;0.60;1.00;;;;;;4887246;29;20269;-76
2021/03/18 01:09:59;;;;;;;7.13;5.30;;;0.60;1.00;;;;;;4879991;29;20322;-77
2021/03/18 01:12:25;;;;;;;7.55;6.60;;;0.50;1.00;;;;;;4887019;29;20229;-78
2021/03/18 01:14:52;;;;;;;6.60;6.00;;;0.50;1.00;;;;;;4902885;28;20231;-76
2021/03/18 01:17:19;;;;;;;10.07;6.00;;;0.50;1.00;;;;;;4888322;29;20225;-75
2021/03/18 01:19:45;;;;;;;9.50;6.63;;;0.40;1.00;;;;;;4900063;29;20355;-77
2021/03/18 01:22:11;;;;;;;7.32;6.25;;;0.40;1.00;;;;;;4884023;28;20645;-76
2021/03/18 01:24:38;;;;;;;6.57;5.97;;;0.40;1.00;;;;;;4896889;28;20233;-79
2021/03/18 01:27:04;;;;;;;6.95;5.90;;;0.40;1.00;;;;;;4882064;28;20246;-77
2021/03/18 01:29:31;;;;;;;6.50;5.80;;;0.40;1.00;;;;;;4896927;29;20226;-78
2021/03/18 01:31:57;;;;;;;9.05;6.95;;;0.40;1.00;;;;;;4888548;29;23412;-78
2021/03/18 01:34:24;;;;;;;7.25;6.13;;;0.40;1.00;;;;;;4898081;28;20249;-78
2021/03/18 01:36:50;;;;;;;10.63;6.80;;;0.40;1.00;;;;;;4877735;28;20244;-77
2021/03/18 01:39:17;;;;;;;6.18;5.55;;;0.50;1.00;;;;;;4896129;28;20225;-77
2021/03/18 01:41:43;;;;;;;8.60;7.20;;;0.50;1.00;;;;;;4898970;29;20329;-77
2021/03/18 01:44:10;;;;;;;7.28;5.88;;;0.60;1.00;;;;;;4876141;28;21249;-78
2021/03/18 01:46:36;;;;;;;12.55;7.10;;;0.70;1.00;;;;;;4901326;29;20810;-77
2021/03/18 01:49:03;;;;;;;8.07;6.22;;;0.80;1.00;;;;;;4890316;28;20230;-77
2021/03/18 01:51:31;;;;;;;8.70;7.07;;;0.80;1.00;;;;;;4900961;28;21030;-76
2021/03/18 01:53:57;;;;;;;7.47;6.68;;;0.80;1.00;;;;;;4892745;29;20237;-78
2021/03/18 01:56:24;;;;;;;8.93;7.15;;;0.90;1.00;;;;;;4901875;28;24086;-78
2021/03/18 01:58:50;;;;;;;7.03;6.38;;;0.80;1.00;;;;;;4894300;29;20726;-75
2021/03/18 02:01:18;;;;;;;7.50;6.57;;;0.90;1.00;;;;;;4904625;29;20218;-77
2021/03/18 02:03:45;;;;;;;10.18;9.27;;;0.90;1.00;;;;;;4893861;28;20262;-78
2021/03/18 02:06:12;;;;;;;7.63;6.30;;;1.00;1.00;;;;;;4902009;29;20222;-77
2021/03/18 02:08:40;;;;;;;8.43;7.53;;;1.00;1.00;;;;;;4890357;28;20229;-77
2021/03/18 02:11:06;;;;;;;8.43;6.70;;;1.00;1.00;;;;;;4906719;29;21208;-77
2021/03/18 02:13:33;;;;;;;7.22;6.53;;;1.00;1.00;;;;;;4892083;28;20391;-77
2021/03/18 02:16:02;;;;;;;7.65;6.75;;;1.00;1.00;;;;;;4903167;29;20340;-78
2021/03/18 02:18:35;;;;;;;13.30;7.25;;;1.00;1.00;;;;;;4896816;28;20297;-77
2021/03/18 02:21:40;;;;;;;8.30;6.95;;;1.00;1.00;;;;;;4893006;29;20238;-77
2021/03/18 02:24:32;;;;;;;7.53;6.18;;;1.00;1.00;;;;;;4893252;29;20257;-76
2021/03/18 02:27:25;;;;;;;7.82;6.55;;;0.90;1.00;;;;;;4901889;28;20252;-76
2021/03/18 02:30:30;;;;;;;9.30;7.30;;;0.90;1.00;;;;;;4893637;28;20571;-77
2021/03/18 02:34:01;;;;;;;7.80;7.00;;;0.90;1.00;;;;;;4905633;28;20325;-75
2021/03/18 02:36:33;;;;;;;11.00;8.32;;;0.90;1.00;;;;;;4869885;29;20345;-77
2021/03/18 02:39:02;;;;;;;9.30;7.70;;;1.00;1.00;;;;;;4907253;28;20229;-77
2021/03/18 02:41:32;;;;;;;9.90;6.95;;;1.10;1.00;;;;;;4897584;28;20706;-76
2021/03/18 02:44:04;;;;;;;7.85;7.05;;;1.10;1.00;;;;;;4906342;28;21037;-77
2021/03/18 02:46:32;;;;;;;10.60;7.20;;;1.10;1.00;;;;;;4892383;28;21274;-76
2021/03/18 02:49:02;;;;;;;8.90;7.50;;;1.20;1.00;;;;;;4909967;28;20238;-76
2021/03/18 02:51:32;;;;;;;8.43;7.60;;;1.20;1.00;;;;;;4898825;28;20229;-76
2021/03/18 02:54:03;;;;;;;7.97;6.85;;;1.30;1.00;;;;;;4918763;29;20341;-76
2021/03/18 02:56:29;;;;;;;9.27;7.35;;;1.30;1.00;;;;;;4886174;28;20244;-75
2021/03/18 02:58:59;;;;;;;9.18;7.38;;;1.40;1.00;;;;;;4898776;29;20244;-77
2021/03/18 03:01:26;;;;;;;11.90;8.88;;;1.40;1.00;;;;;;4889238;28;20635;-77
2021/03/18 03:03:53;;;;;;;8.02;7.22;;;1.50;1.00;;;;;;4901984;29;20321;-78
2021/03/18 03:06:20;;;;;;;9.05;7.53;;;1.60;1.00;;;;;;4887924;28;20237;-77
2021/03/18 03:08:48;;;;;;;9.43;8.18;;;1.60;1.00;;;;;;4904253;28;21121;-77
2021/03/18 03:11:19;;;;;;;9.38;8.48;;;1.70;1.00;;;;;;4886533;29;20388;-76
2021/03/18 03:13:47;;;;;;;8.90;8.00;;;1.80;1.00;;;;;;4900321;28;20712;-77
2021/03/18 03:16:18;;;;;;;13.18;8.52;;;1.80;1.00;;;;;;4894485;28;20226;-77
2021/03/18 03:18:47;;;;;;;9.75;8.57;;;1.90;1.00;;;;;;4901137;28;20789;-76
2021/03/18 03:21:18;;;;;;;13.90;8.70;;;1.90;1.00;;;;;;4891188;28;20253;-77
2021/03/18 03:23:45;;;;;;;8.98;8.07;;;2.00;1.00;;;;;;4901244;29;20241;-77
2021/03/18 03:26:15;;;;;;;9.20;8.30;;;2.00;1.00;;;;;;4890249;28;20254;-77
2021/03/18 03:28:42;;;;;;;9.65;8.48;;;2.10;1.00;;;;;;4888534;29;20776;-77
2021/03/18 03:31:09;;;;;;;10.27;7.65;;;2.10;1.00;;;;;;4899001;28;21060;-78
2021/03/18 03:33:38;;;;;;;10.25;8.55;;;2.10;1.00;;;;;;4902873;29;20222;-78
2021/03/18 03:36:05;;;;;;;9.13;7.18;;;2.10;1.00;;;;;;4905140;29;20237;-77
2021/03/18 03:38:34;;;;;;;9.88;7.40;;;2.10;1.00;;;;;;4896278;28;20230;-77
2021/03/18 03:41:01;;;;;;;8.73;7.45;;;2.10;1.00;;;;;;4905373;29;20214;-77
2021/03/18 03:43:28;;;;;;;8.85;7.32;;;2.20;1.00;;;;;;4891713;28;20232;-77
2021/03/18 03:45:54;;;;;;;9.02;7.47;;;2.20;1.00;;;;;;4903267;29;20225;-77
2021/03/18 03:48:22;;;;;;;8.60;6.78;;;2.20;1.00;;;;;;4891384;28;20242;-76
2021/03/18 03:50:48;;;;;;;10.40;7.53;;;2.20;1.00;;;;;;4900872;29;20663;-77
2021/03/18 03:53:19;;;;;;;9.27;7.53;;;2.20;1.00;;;;;;4893853;29;20516;-77
2021/03/18 03:55:55;;;;;;;7.00;6.18;;;2.20;1.00;;;;;;4905356;28;20269;-75
2021/03/18 03:58:35;;;;;;;8.80;7.15;;;2.20;1.00;;;;;;4892712;29;20237;-77
2021/03/18 04:01:04;;;;;;;10.10;6.30;;;2.10;1.00;;;;;;4904742;28;20230;-76
2021/03/18 04:03:31;;;;;;;7.82;7.03;;;2.20;1.00;;;;;;4893290;28;20225;-77
2021/03/18 04:06:00;;;;;;;7.78;6.97;;;2.10;1.00;;;;;;4903175;28;20241;-77
2021/03/18 04:08:28;;;;;;;9.00;6.40;;;2.10;1.00;;;;;;4895483;28;20251;-77
2021/03/18 04:10:57;;;;;;;5.80;5.30;;;2.10;1.00;;;;;;4905105;29;20232;-76
2021/03/18 04:13:26;;;;;;;7.20;5.80;;;2.00;1.00;;;;;;4895469;28;20237;-76
2021/03/18 04:15:55;;;;;;;8.07;6.50;;;2.00;1.00;;;;;;4918606;29;20261;-77
2021/03/18 04:18:28;;;;;;;6.88;6.28;;;2.00;1.00;;;;;;4902283;28;20222;-77
2021/03/18 04:20:56;;;;;;;8.80;6.53;;;1.90;1.00;;;;;;4887758;29;20229;-78
2021/03/18 04:23:23;;;;;;;7.10;6.40;;;1.90;1.00;;;;;;4894331;28;21113;-77
2021/03/18 04:25:50;;;;;;;12.50;8.25;;;1.90;1.00;;;;;;4910115;29;20246;-77
2021/03/18 04:28:17;;;;;;;11.73;8.05;;;1.80;1.00;;;;;;4916358;29;20230;-77
2021/03/18 04:30:45;;;;;;;8.50;7.50;;;1.80;1.00;;;;;;4899086;28;20226;-77
2021/03/18 04:33:13;;;;;;;9.25;7.43;;;1.70;1.00;;;;;;4915673;29;20225;-78
2021/03/18 04:35:41;;;;;;;9.98;8.25;;;1.80;1.00;;;;;;4901736;28;20233;-78
2021/03/18 04:38:08;;;;;;;11.07;9.20;;;1.80;1.00;;;;;;4913825;29;20308;-76
2021/03/18 04:40:34;;;;;;;14.55;10.20;;;1.80;1.00;;;;;;4903744;29;20226;-77
2021/03/18 04:43:02;;;;;;;11.90;9.65;;;1.90;1.00;;;;;;4920677;28;20255;-76
2021/03/18 04:45:31;;;;;;;10.90;9.43;;;1.90;1.00;;;;;;4897371;28;20340;-75
2021/03/18 04:48:00;;;;;;;14.20;10.07;;;1.90;1.00;;;;;;4907698;28;20237;-76
2021/03/18 04:50:30;;;;;;;12.30;10.65;;;1.90;1.00;;;;;;4896715;29;20348;-76
2021/03/18 04:52:56;;;;;;;13.60;10.52;;;2.00;1.00;;;;;;4895512;28;20285;-77
2021/03/18 04:55:23;;;;;;;14.05;10.85;;;2.00;1.00;;;;;;4904844;28;20304;-76
2021/03/18 04:57:57;;;;;;;12.57;10.05;;;2.00;1.00;;;;;;4911436;29;20229;-77
2021/03/18 05:00:25;;;;;;;10.93;9.25;;;2.00;1.00;;;;;;4901577;28;21013;-76
2021/03/18 05:02:52;;;;;;;10.32;9.30;;;1.90;1.00;;;;;;4893363;29;20424;-77
2021/03/18 05:05:21;;;;;;;11.73;10.40;;;1.90;1.00;;;;;;4909978;28;20285;-75
2021/03/18 05:07:50;;;;;;;16.77;11.88;;;1.90;1.00;;;;;;4917881;29;20234;-76
2021/03/18 05:10:19;;;;;;;17.67;14.00;;;1.90;1.00;;;;;;4923401;29;21237;-79
2021/03/18 05:12:46;;;;;;;18.40;14.23;;;2.00;1.00;;;;;;4936459;28;20274;-78
2021/03/18 05:15:14;;;;;;;17.35;13.07;;;2.00;1.00;;;;;;4928699;28;20222;-79
2021/03/18 05:17:42;;;;;;;18.83;14.48;;;2.10;1.00;;;;;;4930536;28;20265;-77
2021/03/18 05:20:11;;;;;;;21.70;17.60;;;2.20;1.00;;;;;;4917462;29;20329;-76
2021/03/18 05:22:39;;;;;;;21.98;16.15;;;2.20;1.00;;;;;;4912457;28;20230;-76
2021/03/18 05:25:08;;;;;;;18.90;14.95;;;2.30;1.00;;;;;;4928727;29;20234;-77
2021/03/18 05:42:17;;;;;;;14.48;12.32;;;2.20;1.00;;;;;;4927944;28;20245;-75
2021/03/18 05:44:44;;;;;;;22.48;13.23;;;2.20;1.00;;;;;;4942768;29;20264;-77
2021/03/18 05:47:11;;;;;;;19.95;13.98;;;2.10;1.00;;;;;;4926397;28;20240;-76
2021/03/18 05:49:38;;;;;;;22.30;16.50;;;2.10;1.00;;;;;;4949754;29;20229;-75
2021/03/18 05:52:08;;;;;;;20.08;15.20;;;2.20;1.00;;;;;;4922640;28;20260;-73
2021/03/18 05:54:35;;;;;;;19.65;15.40;;;2.30;1.00;;;;;;4941847;29;20241;-74
2021/03/18 05:57:02;;;;;;;20.67;15.50;;;2.30;1.00;;;;;;4921056;28;20669;-74
2021/03/18 05:59:30;;;;;;;21.40;16.35;;;2.30;1.00;;;;;;4933840;28;20221;-74
2021/03/18 06:01:59;;;;;;;22.45;17.52;;;2.40;1.00;;;;;;4918704;29;20226;-72
2021/03/18 06:04:26;;;;;;;24.80;17.30;;;2.40;1.00;;;;;;4928968;28;20225;-75
2021/03/18 06:06:53;;;;;;;21.02;15.75;;;2.60;1.00;;;;;;4933071;29;20237;-74
2021/03/18 06:09:19;;;;;;;22.05;17.73;;;2.60;1.00;;;;;;4909829;28;20226;-72
2021/03/18 06:11:46;;;;;;;20.60;15.52;;;2.70;1.00;;;;;;4921580;28;20230;-75
2021/03/18 06:14:12;;;;;;;19.13;15.82;;;2.80;1.00;;;;;;4905036;28;20233;-74
2021/03/18 06:16:42;;;;;;;25.17;16.83;;;2.80;1.00;;;;;;4923187;28;20386;-74
2021/03/18 06:19:09;;;;;;;21.88;17.73;;;3.10;1.00;;;;;;4910185;28;21075;-75
2021/03/18 06:21:46;;;;;;;25.17;18.75;;;3.20;1.00;;;;;;4923151;28;20324;-74
2021/03/18 06:24:13;;;;;;;33.55;22.10;;;3.40;1.00;;;;;;4907491;29;20365;-73
2021/03/18 06:26:39;;;;;;;30.90;20.23;;;3.50;1.00;;;;;;4923791;28;20352;-76
2021/03/18 06:29:26;;;;;;;30.10;20.02;;;3.60;1.00;;;;;;4905271;28;20257;-74
2021/03/18 06:31:53;;;;;;;25.02;18.77;;;3.70;1.00;;;;;;4929787;29;20219;-72
2021/03/18 06:34:38;;;;;;;25.75;18.70;;;3.90;1.00;;;;;;4917607;28;20225;-76
2021/03/18 06:37:04;;;;;;;25.40;17.38;;;4.00;1.00;;;;;;4916813;29;20226;-77
2021/03/18 06:39:31;;;;;;;19.63;15.20;;;4.00;1.00;;;;;;4904079;28;20221;-79
2021/03/18 06:41:59;;;;;;;20.50;16.30;;;3.90;1.00;;;;;;4903021;29;24397;-77
2021/03/18 06:44:27;;;;;;;19.95;14.95;;;3.90;1.00;;;;;;4903961;29;20305;-77
2021/03/18 06:47:06;;;;;;;19.48;15.68;;;4.10;1.00;;;;;;4914127;28;20225;-77
2021/03/18 06:49:32;;;;;;;33.10;22.08;;;4.10;1.00;;;;;;4903460;28;21040;-75
2021/03/18 06:52:04;;;;;;;22.15;17.77;;;4.00;1.00;;;;;;4914995;28;20618;-77
2021/03/18 06:54:34;;;;;;;26.90;21.33;;;4.00;1.00;;;;;;4910571;29;20240;-76
2021/03/18 06:57:01;;;;;;;23.75;20.00;;;4.00;1.00;;;;;;4899634;29;20337;-77
2021/03/18 06:59:29;;;;;;;20.52;15.40;;;3.90;1.00;;;;;;4890040;29;20949;-76
2021/03/18 07:02:05;;;;;;;22.33;17.00;;;3.90;1.00;;;;;;4913502;29;20297;-76
2021/03/18 07:04:36;;;;;;;17.55;14.13;;;3.90;1.00;;;;;;4908066;28;20226;-79
2021/03/18 07:07:02;;;;;;;22.92;16.70;;;3.90;1.00;;;;;;4919840;29;21591;-77
2021/03/18 07:09:29;;;;;;;19.77;15.35;;;3.90;1.00;;;;;;4899866;29;20225;-76
2021/03/18 07:12:00;;;;;;;21.95;18.83;;;3.90;1.00;;;;;;4901886;29;20239;-77
2021/03/18 07:14:38;;;;;;;22.98;17.38;;;3.90;1.00;;;;;;4914930;28;20226;-77
2021/03/18 07:17:07;;;;;;;25.83;17.85;;;3.90;1.00;;;;;;4904693;28;21031;-77
2021/03/18 07:19:34;;;;;;;24.27;16.23;;;3.90;1.00;;;;;;4915767;28;21195;-77
2021/03/18 07:22:05;;;;;;;27.45;18.95;;;4.00;1.00;;;;;;4900680;28;20253;-76
2021/03/18 07:24:34;;;;;;;22.85;17.80;;;4.00;1.00;;;;;;4913370;29;20258;-77
2021/03/18 07:27:08;;;;;;;20.13;16.20;;;4.20;1.00;;;;;;4899679;28;20226;-78
2021/03/18 07:29:40;;;;;;;24.38;17.23;;;4.30;1.00;;;;;;4899330;29;20296;-77
2021/03/18 07:32:07;;;;;;;21.17;17.00;;;4.50;1.00;;;;;;4900942;28;20297;-77
2021/03/18 07:34:33;;;;;;;21.83;17.10;;;4.70;1.00;;;;;;4917874;29;20340;-77
2021/03/18 07:37:02;;;;;;;18.45;15.82;;;4.80;1.00;;;;;;4903478;29;20233;-77
2021/03/18 07:39:28;;;;;;;17.65;13.75;;;4.80;1.00;;;;;;4910920;28;20285;-78
2021/03/18 07:41:56;;;;;;;15.27;13.63;;;4.90;1.00;;;;;;4900375;29;20225;-78
2021/03/18 07:44:24;;;;;;;15.00;13.50;;;5.00;1.00;;;;;;4911397;28;20245;-77
2021/03/18 07:46:50;;;;;;;22.38;13.55;;;5.10;1.00;;;;;;4902678;29;20973;-76
2021/03/18 07:49:20;;;;;;;16.48;13.05;;;5.30;1.00;;;;;;4912650;29;20242;-79
2021/03/18 07:51:51;;;;;;;16.98;12.32;;;5.30;1.00;;;;;;4902173;28;20227;-78
2021/03/18 07:54:19;;;;;;;15.25;12.23;;;5.40;1.00;;;;;;4890977;29;20230;-77
2021/03/18 07:56:47;;;;;;;14.23;12.73;;;5.50;1.00;;;;;;4903779;28;20237;-75
2021/03/18 07:59:14;;;;;;;19.80;14.60;;;5.60;1.00;;;;;;4914106;29;20230;-78
2021/03/18 08:01:41;;;;;;;15.57;12.57;;;5.70;1.00;;;;;;4909489;28;20270;-76
2021/03/18 08:04:10;;;;;;;15.70;10.60;;;5.90;1.00;;;;;;4902852;29;20285;-76
2021/03/18 08:06:49;;;;;;;24.08;16.92;;;6.10;1.00;;;;;;4920626;29;20237;-76
2021/03/18 08:09:38;;;;;;;11.68;9.95;;;6.20;1.00;;;;;;4902247;29;20370;-78
2021/03/18 08:12:05;;;;;;;20.52;10.60;;;6.40;1.00;;;;;;4906650;28;20914;-77
2021/03/18 08:14:34;;;;;;;14.43;11.15;;;6.50;1.00;;;;;;4922433;28;20213;-76
2021/03/18 08:17:00;;;;;;;16.33;11.75;;;6.50;1.00;;;;;;4915624;29;20277;-76
2021/03/18 08:19:40;;;;;;;21.85;14.50;;;6.70;1.00;;;;;;4906643;28;20273;-76
2021/03/18 08:22:28;;;;;;;15.32;10.77;;;6.80;1.00;;;;;;4924249;29;20230;-75
2021/03/18 08:24:54;;;;;;;12.40;10.40;;;6.90;1.00;;;;;;4912138;28;20718;-76
2021/03/18 08:27:28;;;;;;;13.88;11.88;;;7.00;1.00;;;;;;4914963;28;20233;-77
2021/03/18 08:29:54;;;;;;;18.75;13.07;;;7.00;1.00;;;;;;4902232;28;20802;-77
2021/03/18 08:32:27;;;;;;;17.38;12.27;;;7.10;1.00;;;;;;4912075;28;20225;-77
2021/03/18 08:34:55;;;;;;;15.10;10.82;;;7.10;1.00;;;;;;4899485;29;20237;-77
2021/03/18 08:37:42;;;;;;;23.70;12.55;;;7.00;1.00;;;;;;4911875;28;20233;-76
2021/03/18 08:40:27;;;;;;;12.23;10.88;;;7.10;1.00;;;;;;4899931;29;20229;-78
2021/03/18 08:43:01;;;;;;;22.35;12.65;;;7.20;1.00;;;;;;4915435;28;20236;-79
2021/03/18 08:45:41;;;;;;;15.75;10.65;;;7.20;1.00;;;;;;4880297;29;20244;-77
2021/03/18 08:48:14;;;;;;;12.55;10.05;;;7.40;1.00;;;;;;4917309;29;20760;-77
2021/03/18 08:50:56;;;;;;;10.40;9.30;;;7.50;1.00;;;;;;4898224;28;20237;-78
2021/03/18 08:53:30;;;;;;;13.30;9.65;;;7.80;1.00;;;;;;4916017;29;20254;-77
2021/03/18 08:55:57;;;;;;;12.30;10.23;;;7.90;1.00;;;;;;4895039;28;20682;-78
2021/03/18 08:58:23;;;;;;;12.10;10.00;;;8.00;1.00;;;;;;4910657;29;20643;-78
2021/03/18 09:00:49;;;;;;;12.15;9.10;;;8.20;1.00;;;;;;4892335;28;20234;-75
2021/03/18 09:03:17;;;;;;;12.43;7.78;;;8.40;1.00;;;;;;4907544;28;20226;-77
2021/03/18 09:05:51;;;;;;;11.60;8.68;;;8.70;1.00;;;;;;4876588;29;20268;-76
2021/03/18 09:08:23;;;;;;;10.45;8.55;;;9.10;1.00;;;;;;4905412;28;20807;-76
2021/03/18 09:10:51;;;;;;;10.60;8.10;;;9.30;1.00;;;;;;4875185;29;20237;-79
2021/03/18 09:13:20;;;;;;;19.92;9.52;;;9.30;1.00;;;;;;4911701;28;23736;-75
2021/03/18 09:15:48;;;;;;;10.77;8.48;;;9.80;1.00;;;;;;4906364;28;20261;-75
2021/03/18 09:18:18;;;;;;;21.52;8.38;;;10.50;1.00;;;;;;4905867;28;20310;-75
2021/03/18 09:20:47;;;;;;;14.05;8.93;;;10.70;1.00;;;;;;4891646;28;20226;-77
2021/03/18 09:23:15;;;;;;;8.55;6.68;;;10.80;1.00;;;;;;4909873;29;20225;-77
2021/03/18 09:25:42;;;;;;;17.63;8.37;;;11.20;1.00;;;;;;4894386;28;20226;-77
2021/03/18 09:28:10;;;;;;;6.55;5.80;;;11.10;1.00;;;;;;4907387;28;20458;-79
2021/03/18 09:30:38;;;;;;;10.93;7.68;;;11.00;1.00;;;;;;4892862;28;20262;-77
2021/03/18 09:33:19;;;;;;;12.23;6.90;;;10.70;1.00;;;;;;4903937;29;20287;-76
2021/03/18 09:35:47;;;;;;;8.43;6.10;;;10.80;1.00;;;;;;4888772;28;20756;-77
2021/03/18 09:38:19;;;;;;;8.23;6.70;;;11.80;1.00;;;;;;4907122;28;20979;-76
2021/03/18 09:40:47;;;;;;;12.40;7.50;;;12.00;1.00;;;;;;4885553;28;20466;-76
2021/03/18 09:43:16;;;;;;;8.17;7.37;;;11.80;1.00;;;;;;4905856;28;20610;-79
2021/03/18 09:45:52;;;;;;;15.70;7.68;;;11.40;1.00;;;;;;4900804;28;20474;-79
2021/03/18 09:48:29;;;;;;;14.60;7.93;;;11.00;1.00;;;;;;4913239;28;20241;-79
2021/03/18 09:51:08;;;;;;;11.13;8.33;;;11.20;1.00;;;;;;4901577;28;20310;-77
2021/03/18 09:53:35;;;;;;;8.47;7.00;;;11.50;1.00;;;;;;4910022;28;20562;-77
2021/03/18 09:56:06;;;;;;;11.63;7.50;;;11.30;1.00;;;;;;4906721;28;20469;-78
2021/03/18 09:58:34;;;;;;;12.55;6.78;;;11.20;1.00;;;;;;4914678;29;20233;-76
2021/03/18 10:01:10;;;;;;;13.87;8.43;;;10.90;1.00;;;;;;4914155;28;21143;-77
2021/03/18 10:03:37;;;;;;;13.20;7.50;;;10.80;1.00;;;;;;4909160;28;20494;-77
2021/03/18 10:06:11;;;;;;;8.10;6.97;;;10.70;1.00;;;;;;4915024;28;20505;-77
2021/03/18 10:08:37;;;;;;;9.20;7.20;;;10.70;1.00;;;;;;4905625;28;20479;-77
2021/03/18 10:11:14;;;;;;;8.77;7.28;;;10.60;1.00;;;;;;4924268;29;20338;-78
2021/03/18 10:13:42;;;;;;;9.60;7.40;;;10.30;1.00;;;;;;4901925;28;20238;-77
2021/03/18 10:16:09;;;;;;;8.45;7.55;;;10.00;1.00;;;;;;4915928;29;20470;-78
2021/03/18 10:18:37;;;;;;;15.02;9.13;;;10.00;1.00;;;;;;4907864;28;20235;-76
2021/03/18 10:21:04;;;;;;;9.85;8.13;;;9.90;1.00;;;;;;4920210;29;20252;-78
2021/03/18 10:23:31;;;;;;;8.15;7.03;;;10.00;1.00;;;;;;4906956;28;20227;-78
2021/03/18 10:25:57;;;;;;;11.65;9.10;;;10.00;1.00;;;;;;4915669;29;20345;-78
2021/03/18 10:28:30;;;;;;;8.95;8.13;;;9.90;1.00;;;;;;4906999;28;20245;-78
2021/03/18 10:30:57;;;;;;;11.05;7.97;;;10.20;1.00;;;;;;4916288;28;20261;-77
2021/03/18 10:33:25;;;;;;;7.87;7.00;;;11.10;1.00;;;;;;4909622;28;20306;-77
2021/03/18 10:36:00;;;;;;;11.37;8.70;;;12.00;1.00;;;;;;4920082;28;20533;-77
2021/03/18 10:38:30;;;;;;;21.00;7.93;;;12.80;1.00;;;;;;4904299;28;20458;-77
2021/03/18 10:40:58;;;;;;;5.53;4.87;;;14.30;1.00;;;;;;4919759;28;20525;-79
2021/03/18 10:43:27;;;;;;;5.93;5.13;;;16.00;1.00;;;;;;4912637;28;21094;-77
2021/03/18 10:45:54;;;;;;;7.07;5.97;;;17.30;1.00;;;;;;4931478;29;20452;-79
2021/03/18 10:48:24;;;;;;;6.00;5.40;;;18.40;1.00;;;;;;4913528;28;20484;-77
2021/03/18 10:50:52;;;;;;;11.10;5.40;;;19.10;1.00;;;;;;4925903;29;20545;-77
2021/03/18 10:53:20;;;;;;;7.93;5.37;;;20.00;1.00;;;;;;4912981;28;20458;-78
2021/03/18 10:55:50;;;;;;;9.33;7.40;;;20.30;1.00;;;;;;4934421;29;20456;-77
2021/03/18 10:58:18;;;;;;;6.87;5.20;;;21.30;1.00;;;;;;4943997;28;20442;-77
2021/03/18 11:00:45;;;;;;;6.27;5.50;;;21.60;1.00;;;;;;4931207;28;20471;-78
2021/03/18 11:03:13;;;;;;;7.10;6.33;;;21.10;1.00;;;;;;4942849;29;21364;-78
2021/03/18 11:05:46;;;;;;;6.97;6.27;;;20.90;1.00;;;;;;4923141;28;20462;-76
2021/03/18 11:08:14;;;;;;;6.83;4.93;;;20.70;1.00;;;;;;4944608;28;20407;-77
2021/03/18 11:10:43;;;;;;;5.40;4.40;;;21.40;1.00;;;;;;4919046;28;20415;-77
2021/03/18 11:13:13;;;;;;;6.47;4.97;;;22.10;1.00;;;;;;4926289;28;20560;-75
2021/03/18 11:15:54;;;;;;;8.00;5.57;;;22.90;1.00;;;;;;4907983;28;20483;-77
2021/03/18 11:18:27;;;;;;;7.40;6.10;;;23.60;1.00;;;;;;4924151;28;20980;-76
2021/03/18 11:20:54;;;;;;;10.00;5.57;;;22.70;1.00;;;;;;4922990;28;20453;-76
2021/03/18 11:24:04;;;;;;;6.03;5.50;;;21.10;1.00;;;;;;4901231;29;20950;-83
2021/03/18 11:26:31;;;;;;;9.23;6.27;;;19.30;1.00;;;;;;4887727;29;21577;-77
2021/03/18 11:29:02;;;;;;;9.70;8.00;;;17.20;1.00;;;;;;4896395;28;20566;-78
2021/03/18 11:31:29;;;;;;;17.50;12.70;;;16.90;1.00;;;;;;4910485;29;20445;-76
2021/03/18 11:33:56;;;;;;;16.73;10.57;;;18.60;1.00;;;;;;4920075;28;20480;-76
2021/03/18 11:36:23;;;;;;;10.67;7.10;;;20.20;1.00;;;;;;4902724;29;20462;-77
2021/03/18 11:38:50;;;;;;;7.60;5.60;;;21.40;1.00;;;;;;4910747;28;20451;-77
2021/03/18 11:41:17;;;;;;;12.13;6.77;;;21.80;1.00;;;;;;4896797;28;20420;-77
2021/03/18 11:43:43;;;;;;;10.30;7.33;;;21.40;1.00;;;;;;4920650;29;20446;-79
2021/03/18 11:46:10;;;;;;;9.50;5.80;;;20.70;1.00;;;;;;4911503;28;20460;-83
2021/03/18 11:48:36;;;;;;;8.97;8.17;;;20.70;1.00;;;;;;4939152;29;21128;-82
2021/03/18 11:51:03;;;;;;;7.73;6.43;;;21.20;1.00;;;;;;4931175;28;20449;-84
2021/03/18 11:53:31;;;;;;;7.10;6.20;;;21.80;1.00;;;;;;4936962;28;20493;-84
2021/03/18 11:55:57;;;;;;;9.20;8.40;;;22.00;1.00;;;;;;4928564;28;21475;-80
2021/03/18 11:58:24;;;;;;;10.43;8.67;;;20.70;1.00;;;;;;4938929;28;20428;-85
2021/03/18 12:00:50;;;;;;;11.43;7.30;;;20.60;1.00;;;;;;4913019;28;20514;-82
2021/03/18 12:03:16;;;;;;;8.80;7.10;;;21.00;1.00;;;;;;4902903;29;20468;-77
2021/03/18 12:05:43;;;;;;;7.83;6.43;;;21.90;1.00;;;;;;4910400;28;20507;-78
2021/03/18 12:08:10;;;;;;;7.13;6.43;;;22.70;1.00;;;;;;4901452;29;20471;-78
2021/03/18 12:10:39;;;;;;;9.87;7.07;;;22.30;1.00;;;;;;4914733;28;21046;-77
2021/03/18 12:13:05;;;;;;;7.40;6.60;;;21.50;1.00;;;;;;4898073;28;20466;-76
2021/03/18 12:15:32;;;;;;;6.37;5.87;;;21.60;1.00;;;;;;4906330;28;22408;-79
2021/03/18 12:17:58;;;;;;;6.17;5.63;;;21.50;1.00;;;;;;4898989;28;20484;-79
2021/03/18 12:20:27;;;;;;;6.80;5.50;;;20.30;1.00;;;;;;4913718;29;20469;-79
2021/03/18 12:22:55;;;;;;;7.90;6.10;;;19.30;1.00;;;;;;4900672;28;20461;-81
2021/03/18 12:25:21;;;;;;;9.30;6.20;;;19.20;1.00;;;;;;4904091;29;20517;-78
2021/03/18 12:27:49;;;;;;;7.37;6.50;;;19.60;1.00;;;;;;4895558;28;21497;-78
2021/03/18 12:30:18;;;;;;;6.73;6.10;;;20.20;1.00;;;;;;4913881;28;20953;-77
2021/03/18 12:32:45;;;;;;;8.90;5.80;;;20.50;1.00;;;;;;4897471;28;21753;-77
2021/03/18 12:35:13;;;;;;;5.83;4.83;;;20.60;1.00;;;;;;4909438;28;20478;-76
2021/03/18 12:37:39;;;;;;;5.63;5.10;;;20.70;1.00;;;;;;4897323;29;20450;-77
2021/03/18 12:40:07;;;;;;;6.00;5.10;;;20.30;1.00;;;;;;4909432;28;21416;-78
2021/03/18 12:42:34;;;;;;;5.77;5.20;;;19.40;1.00;;;;;;4901565;29;21368;-76
2021/03/18 12:45:01;;;;;;;10.97;6.23;;;17.90;1.00;;;;;;4906116;28;20468;-77
2021/03/18 12:47:27;;;;;;;5.13;4.40;;;16.40;1.00;;;;;;4909723;29;20447;-76
2021/03/18 12:49:54;;;;;;;5.77;5.03;;;15.00;1.00;;;;;;4903562;28;20459;-79
2021/03/18 12:52:20;;;;;;;7.67;6.87;;;13.90;1.00;;;;;;4913140;28;20561;-77
2021/03/18 12:54:46;;;;;;;6.90;5.47;;;13.10;1.00;;;;;;4908019;29;20545;-77
2021/03/18 12:57:13;;;;;;;7.27;6.57;;;12.50;1.00;;;;;;4915663;28;21259;-78
2021/03/18 12:59:39;;;;;;;10.70;6.10;;;12.40;1.00;;;;;;4891517;29;20467;-78
2021/03/18 13:02:06;;;;;;;6.33;4.60;;;12.20;1.00;;;;;;4912962;29;20461;-77
2021/03/18 13:04:33;;;;;;;8.55;6.57;;;11.60;1.00;;;;;;4900508;28;21284;-81
2021/03/18 13:06:59;;;;;;;6.25;4.40;;;11.20;1.00;;;;;;4911701;29;20232;-76
2021/03/18 13:09:25;;;;;;;6.63;5.95;;;10.90;1.00;;;;;;4903341;28;20241;-78
2021/03/18 13:11:52;;;;;;;5.63;5.13;;;10.60;1.00;;;;;;4912018;29;20228;-77
2021/03/18 13:14:19;;;;;;;5.03;4.55;;;10.30;1.00;;;;;;4901374;28;20470;-80
2021/03/18 13:16:47;;;;;;;4.18;3.60;;;9.80;1.00;;;;;;4911817;28;20229;-80
2021/03/18 13:19:15;;;;;;;3.58;3.28;;;9.30;1.00;;;;;;4902610;28;20253;-78
2021/03/18 13:21:42;;;;;;;5.38;3.50;;;8.90;1.00;;;;;;4888908;29;20232;-78